Time;durP1;ratioP1;P1;durP2;ratioP2;P2;SDS_P1;SDS_P2;PMS_P1;PMS_P2;Temp;Humidity;BMP_temperature;BMP_pressure;BME280_temperature;BME280_humidity;BME280_pressure;Samples;Min_cycle;Max_cycle;Signal;HPM_P1;HPM_P2
2024/02/11 00:00:43;;;;;;;16.35;11.88;;;;;;;13.64;65.48;98573.44;4964214;28;112976;-82
2024/02/11 00:03:10;;;;;;;18.33;12.50;;;;;;;13.63;65.34;98575.25;4968645;28;123594;-83
2024/02/11 00:05:38;;;;;;;17.70;11.48;;;;;;;13.62;65.41;98572.75;4962221;28;122619;-82
2024/02/11 00:08:05;;;;;;;14.25;11.07;;;;;;;13.62;65.17;98578.06;4985232;28;114265;-82
2024/02/11 00:10:32;;;;;;;15.80;11.88;;;;;;;13.60;65.39;98575.56;4962754;28;114184;-83
2024/02/11 00:13:01;;;;;;;13.82;10.73;;;;;;;13.60;65.45;98574.72;4960807;28;124188;-82
2024/02/11 00:15:29;;;;;;;14.93;11.50;;;;;;;13.58;65.57;98576.66;4968148;28;125253;-82
2024/02/11 00:17:57;;;;;;;14.50;11.07;;;;;;;13.57;65.57;98580.31;4949729;28;113981;-83
2024/02/11 00:20:26;;;;;;;16.73;11.10;;;;;;;13.57;65.65;98580.31;4968374;28;114495;-82
2024/02/11 00:22:53;;;;;;;16.10;10.93;;;;;;;13.55;65.66;98579.63;4970319;28;121970;-83
2024/02/11 00:25:21;;;;;;;16.65;11.32;;;;;;;13.53;65.53;98585.09;4944018;28;123041;-83
2024/02/11 00:27:52;;;;;;;13.88;10.55;;;;;;;13.53;65.71;98581.59;4955618;28;114505;-82
2024/02/11 00:30:23;;;;;;;15.75;10.75;;;;;;;13.52;65.68;98586.06;4971528;28;115245;-82
2024/02/11 00:32:56;;;;;;;15.07;11.20;;;;;;;13.54;65.84;98580.59;4967025;28;123786;-83
2024/02/11 00:35:24;;;;;;;15.38;10.70;;;;;;;13.53;65.91;98578.94;4965649;28;124884;-83
2024/02/11 00:37:52;;;;;;;15.93;10.80;;;;;;;13.54;65.82;98575.28;4966444;28;114176;-83
2024/02/11 00:40:21;;;;;;;15.43;10.45;;;;;;;13.54;65.76;98577.94;4952993;28;112627;-82
2024/02/11 00:42:48;;;;;;;16.23;10.68;;;;;;;13.53;65.98;98576.28;4978209;28;124030;-83
2024/02/11 00:45:15;;;;;;;15.32;11.27;;;;;;;13.53;66.00;98570.97;4993923;28;123355;-82
2024/02/11 00:47:43;;;;;;;15.93;11.02;;;;;;;13.54;65.86;98565.50;4992708;28;114884;-83
2024/02/11 00:50:14;;;;;;;15.52;11.32;;;;;;;13.53;65.99;98568.28;4994086;28;113124;-83
2024/02/11 00:52:42;;;;;;;14.85;11.15;;;;;;;13.52;65.97;98571.94;4983388;28;123354;-82
2024/02/11 00:55:21;;;;;;;14.52;11.13;;;;;;;13.51;66.13;98564.94;4981065;28;123766;-83
2024/02/11 00:57:49;;;;;;;15.80;10.60;;;;;;;13.51;66.13;98564.94;5005112;28;113676;-83
2024/02/11 01:00:17;;;;;;;13.77;10.90;;;;;;;13.51;66.06;98570.25;4984360;28;114925;-83
2024/02/11 01:02:44;;;;;;;15.13;11.20;;;;;;;13.51;66.17;98564.94;5003786;28;120835;-83
2024/02/11 01:05:11;;;;;;;16.40;10.88;;;;;;;13.49;66.03;98567.75;4993557;28;124223;-82
2024/02/11 01:07:40;;;;;;;14.60;10.93;;;;;;;13.49;66.25;98566.91;4976883;28;113880;-82
2024/02/11 01:10:14;;;;;;;14.43;10.48;;;;;;;13.47;66.15;98569.72;4989266;28;114050;-82
2024/02/11 01:12:46;;;;;;;15.70;11.57;;;;;;;13.47;66.26;98558.22;4985330;28;123666;-83
2024/02/11 01:15:16;;;;;;;16.15;10.85;;;;;;;13.47;66.06;98563.53;4970941;28;123438;-83
2024/02/11 01:17:44;;;;;;;15.73;11.63;;;;;;;13.49;66.16;98556.28;4974568;28;114358;-82
2024/02/11 01:20:14;;;;;;;16.10;10.73;;;;;;;13.49;66.26;98551.78;4965679;28;114092;-83
2024/02/11 01:22:47;;;;;;;17.05;11.40;;;;;;;13.48;66.25;98550.09;4977367;28;123826;-82
2024/02/11 01:25:19;;;;;;;16.17;11.07;;;;;;;13.48;66.26;98554.59;4963520;28;123316;-82
2024/02/11 01:27:47;;;;;;;17.92;11.98;;;;;;;13.47;66.31;98547.56;4950887;28;113625;-82
2024/02/11 01:30:15;;;;;;;15.25;11.40;;;;;;;13.47;66.20;98558.22;4971055;28;113049;-82
2024/02/11 01:32:42;;;;;;;17.88;11.75;;;;;;;13.47;66.21;98563.53;4951507;28;122523;-83
2024/02/11 01:35:12;;;;;;;16.75;11.20;;;;;;;13.49;66.29;98556.28;4966537;28;122395;-83
2024/02/11 01:37:40;;;;;;;17.48;11.57;;;;;;;13.49;66.31;98567.75;4976970;28;114554;-83
2024/02/11 01:40:10;;;;;;;15.70;11.35;;;;;;;13.49;66.21;98572.22;4963635;28;112037;-84
2024/02/11 01:42:39;;;;;;;16.67;11.68;;;;;;;13.51;66.21;98575.59;4967452;28;123826;-83
2024/02/11 01:45:07;;;;;;;16.92;11.98;;;;;;;13.51;66.20;98575.59;4960144;28;123037;-83
2024/02/11 01:47:36;;;;;;;16.77;11.73;;;;;;;13.51;66.31;98564.94;4983128;28;114400;-82
2024/02/11 01:50:15;;;;;;;18.67;12.00;;;;;;;13.53;66.34;98573.63;4953808;28;112317;-83
2024/02/11 01:52:45;;;;;;;15.90;12.05;;;;;;;13.53;66.27;98568.28;4969159;28;123807;-83
2024/02/11 01:55:12;;;;;;;15.95;11.98;;;;;;;13.53;66.44;98573.63;4965912;28;124480;-82
2024/02/11 01:57:41;;;;;;;17.52;11.75;;;;;;;13.50;66.37;98564.09;4966939;28;114255;-82
2024/02/11 02:00:10;;;;;;;16.65;11.75;;;;;;;13.50;66.33;98568.56;4967143;28;113072;-82
2024/02/11 02:02:38;;;;;;;16.42;11.80;;;;;;;13.51;66.38;98567.59;4970483;28;124794;-83
2024/02/11 02:05:07;;;;;;;16.27;12.10;;;;;;;13.53;66.28;98563.81;4958207;28;122891;-82
2024/02/11 02:07:35;;;;;;;16.38;11.55;;;;;;;13.53;66.33;98560.31;4967699;28;113554;-83
2024/02/11 02:10:04;;;;;;;17.05;11.82;;;;;;;13.53;66.34;98563.81;4969991;28;115591;-83
2024/02/11 02:12:31;;;;;;;16.27;12.32;;;;;;;13.54;66.24;98560.19;4970827;28;124507;-82
2024/02/11 02:14:58;;;;;;;17.77;11.93;;;;;;;13.55;66.31;98555.69;4954565;28;123781;-83
2024/02/11 02:17:26;;;;;;;16.83;11.90;;;;;;;13.53;66.24;98557.66;4958269;28;113543;-83
2024/02/11 02:19:53;;;;;;;16.85;12.02;;;;;;;13.53;66.34;98552.34;4966930;28;114397;-82
2024/02/11 02:22:21;;;;;;;18.48;11.60;;;;;;;13.54;66.34;98559.31;4953196;28;122259;-82
2024/02/11 02:24:51;;;;;;;16.63;11.85;;;;;;;13.53;66.27;98557.66;4953042;28;123116;-83
2024/02/11 02:27:18;;;;;;;18.25;11.18;;;;;;;13.49;66.29;98551.78;4968640;28;114235;-83
2024/02/11 02:29:45;;;;;;;17.75;11.23;;;;;;;13.49;66.32;98553.63;4964791;28;112635;-82
2024/02/11 02:32:12;;;;;;;16.33;11.63;;;;;;;13.48;66.50;98549.28;4973185;28;124959;-82
2024/02/11 02:34:40;;;;;;;16.40;11.43;;;;;;;13.47;66.49;98536.94;4954582;28;124082;-83
2024/02/11 02:37:08;;;;;;;15.85;11.38;;;;;;;13.48;66.61;98538.63;4961210;28;114701;-83
2024/02/11 02:39:36;;;;;;;16.45;11.52;;;;;;;13.49;66.55;98537.66;4945966;28;113380;-84
2024/02/11 02:42:04;;;;;;;20.67;12.05;;;;;;;13.49;66.39;98545.63;4961910;28;122883;-83
2024/02/11 02:44:31;;;;;;;15.90;11.68;;;;;;;13.51;66.61;98533.03;4970813;28;122686;-83
2024/02/11 02:46:59;;;;;;;16.20;11.65;;;;;;;13.50;66.45;98536.66;4963482;28;113551;-83
2024/02/11 02:49:26;;;;;;;15.77;11.05;;;;;;;13.52;66.45;98540.00;4945892;28;113449;-83
2024/02/11 02:51:57;;;;;;;17.15;11.85;;;;;;;13.52;66.53;98534.69;4968197;28;124336;-83
2024/02/11 02:54:25;;;;;;;16.25;11.60;;;;;;;13.54;66.55;98538.03;4967304;28;122197;-83
2024/02/11 02:56:52;;;;;;;20.45;12.35;;;;;;;13.55;66.40;98537.06;4966578;28;114986;-83
2024/02/11 02:59:19;;;;;;;15.63;11.15;;;;;;;13.54;66.39;98532.72;4953132;28;116367;-83
2024/02/11 03:01:47;;;;;;;15.48;11.45;;;;;;;13.54;66.46;98533.59;4963655;28;124172;-84
2024/02/11 03:04:16;;;;;;;19.20;11.80;;;;;;;13.55;66.42;98539.72;4963001;28;124134;-83
2024/02/11 03:06:43;;;;;;;16.52;11.13;;;;;;;13.56;66.46;98531.63;4970840;28;113983;-83
2024/02/11 03:09:11;;;;;;;18.35;11.70;;;;;;;13.56;66.36;98531.63;4968536;28;113392;-83
2024/02/11 03:11:40;;;;;;;16.00;11.75;;;;;;;13.57;66.50;98527.13;4961171;28;124384;-83
2024/02/11 03:14:07;;;;;;;19.38;11.88;;;;;;;13.56;66.11;98520.13;4963901;28;123371;-83
2024/02/11 03:16:35;;;;;;;16.85;11.82;;;;;;;13.55;66.30;98523.78;4963658;28;114341;-83
2024/02/11 03:19:05;;;;;;;16.02;11.40;;;;;;;13.55;66.32;98523.78;4948147;28;112426;-83
2024/02/11 03:21:33;;;;;;;17.02;11.77;;;;;;;13.56;66.38;98520.13;4967348;28;122999;-82
2024/02/11 03:24:04;;;;;;;17.05;11.18;;;;;;;13.54;66.12;98530.06;4947888;28;122890;-83
2024/02/11 03:26:31;;;;;;;16.13;11.57;;;;;;;13.54;66.24;98524.75;4977716;28;114241;-83
2024/02/11 03:29:00;;;;;;;17.58;11.40;;;;;;;13.51;66.23;98530.38;4970363;28;112568;-84
2024/02/11 03:31:27;;;;;;;19.48;11.88;;;;;;;13.51;66.25;98522.41;4967293;28;124018;-83
2024/02/11 03:33:54;;;;;;;17.40;11.70;;;;;;;13.50;66.32;98523.38;4953149;28;121550;-83
2024/02/11 03:36:22;;;;;;;18.60;11.88;;;;;;;13.48;66.34;98526.16;4951043;28;114068;-84
2024/02/11 03:38:49;;;;;;;17.15;11.48;;;;;;;13.48;66.30;98533.31;4965125;28;113313;-83
2024/02/11 03:41:16;;;;;;;16.45;11.75;;;;;;;13.47;66.33;98534.28;4966896;28;124658;-83
2024/02/11 03:43:43;;;;;;;16.90;11.32;;;;;;;13.47;66.19;98536.94;4964702;28;123021;-83
2024/02/11 03:46:11;;;;;;;15.38;10.10;;;;;;;13.46;66.20;98529.97;4964935;28;115530;-83
2024/02/11 03:48:38;;;;;;;16.08;10.65;;;;;;;13.42;66.33;98540.88;4967938;28;114993;-83
2024/02/11 03:51:06;;;;;;;14.82;10.35;;;;;;;13.40;66.10;98529.56;4960444;28;123908;-83
2024/02/11 03:53:34;;;;;;;14.02;9.82;;;;;;;13.37;66.07;98537.84;4960840;28;123457;-83
2024/02/11 03:56:05;;;;;;;16.23;11.18;;;;;;;13.36;66.10;98546.78;4959409;28;114627;-83
2024/02/11 03:58:34;;;;;;;15.77;11.05;;;;;;;13.34;66.24;98543.44;4964096;28;112546;-83
2024/02/11 04:01:02;;;;;;;15.02;10.85;;;;;;;13.33;66.13;98547.06;4953918;28;123589;-83
2024/02/11 04:03:29;;;;;;;16.58;10.73;;;;;;;13.34;66.14;98550.56;4960929;28;123995;-83
2024/02/11 04:05:56;;;;;;;14.50;10.15;;;;;;;13.32;66.23;98547.22;4957106;28;113796;-83
2024/02/11 04:08:24;;;;;;;14.82;9.98;;;;;;;13.31;66.41;98543.69;4966242;28;112970;-83
2024/02/11 04:10:52;;;;;;;16.15;10.35;;;;;;;13.31;66.18;98551.69;4967142;28;123949;-83
2024/02/11 04:13:24;;;;;;;15.50;10.10;;;;;;;13.29;66.36;98548.28;4952355;28;124067;-83
2024/02/11 04:16:05;;;;;;;13.85;10.48;;;;;;;13.28;66.34;98549.28;4943303;28;113119;-82
2024/02/11 04:18:32;;;;;;;14.02;10.05;;;;;;;13.29;66.35;98550.13;4968969;28;114369;-82
2024/02/11 04:20:59;;;;;;;14.38;10.27;;;;;;;13.28;66.41;98551.94;4961316;28;123056;-83
2024/02/11 04:23:27;;;;;;;15.50;10.27;;;;;;;13.28;66.50;98549.28;4960532;28;123044;-83
2024/02/11 04:25:56;;;;;;;14.82;9.95;;;;;;;13.29;66.48;98550.94;4969153;28;114212;-83
2024/02/11 04:28:23;;;;;;;13.70;9.98;;;;;;;13.30;66.48;98558.00;4962729;28;113196;-82
2024/02/11 04:30:51;;;;;;;14.90;9.63;;;;;;;13.29;66.54;98550.13;4963124;28;123788;-82
2024/02/11 04:33:22;;;;;;;14.70;9.52;;;;;;;13.31;66.55;98554.34;4959719;28;122775;-82
2024/02/11 04:35:49;;;;;;;12.65;9.25;;;;;;;13.31;66.47;98551.69;4968430;28;114766;-82
2024/02/11 04:38:17;;;;;;;16.85;10.20;;;;;;;13.31;66.67;98554.34;4951871;28;114779;-82
2024/02/11 04:40:45;;;;;;;15.65;9.73;;;;;;;13.33;66.58;98552.38;4967129;28;123566;-83
2024/02/11 04:43:13;;;;;;;19.38;10.40;;;;;;;13.34;66.90;98559.38;4962592;28;123580;-83
2024/02/11 04:45:41;;;;;;;16.48;10.27;;;;;;;13.36;66.82;98556.59;4948220;28;114933;-82
2024/02/11 04:48:10;;;;;;;18.15;9.90;;;;;;;13.37;66.70;98553.78;4965039;28;113709;-83
2024/02/11 04:50:38;;;;;;;17.08;10.82;;;;;;;13.39;66.71;98557.13;4982291;28;123944;-82
2024/02/11 04:53:08;;;;;;;15.43;10.45;;;;;;;13.40;66.79;98569.44;4965997;28;122762;-83
2024/02/11 04:55:39;;;;;;;15.25;10.55;;;;;;;13.42;66.80;98562.16;4972086;28;113983;-83
2024/02/11 04:58:15;;;;;;;15.35;10.73;;;;;;;13.43;66.65;98566.50;4960796;28;113940;-83
2024/02/11 05:00:49;;;;;;;18.52;10.77;;;;;;;13.44;66.63;98564.66;4961932;28;123589;-82
2024/02/11 05:03:19;;;;;;;16.05;10.68;;;;;;;13.46;66.73;98572.50;4963569;28;123645;-82
2024/02/11 05:05:49;;;;;;;18.38;11.52;;;;;;;13.48;66.78;98575.84;4965194;28;113927;-82
2024/02/11 05:08:19;;;;;;;16.17;11.00;;;;;;;13.48;66.70;98575.84;4967170;28;113846;-83
2024/02/11 05:10:51;;;;;;;17.60;11.05;;;;;;;13.49;66.69;98585.53;4966035;28;123526;-82
2024/02/11 05:13:22;;;;;;;16.75;11.10;;;;;;;13.50;66.86;98584.53;4972464;28;124009;-82
2024/02/11 05:15:49;;;;;;;16.98;11.50;;;;;;;13.51;66.71;98591.53;4979870;28;113397;-83
2024/02/11 05:18:18;;;;;;;17.35;11.45;;;;;;;13.51;66.71;98594.19;4969382;28;113978;-83
2024/02/11 05:20:46;;;;;;;19.55;11.82;;;;;;;13.53;66.85;98601.03;4969510;28;123535;-82
2024/02/11 05:23:15;;;;;;;17.13;11.50;;;;;;;13.54;66.86;98596.56;4965875;28;123531;-82
2024/02/11 05:25:44;;;;;;;17.48;11.82;;;;;;;13.56;66.78;98599.91;4983294;28;114338;-82
2024/02/11 05:28:15;;;;;;;20.60;12.55;;;;;;;13.57;66.83;98601.59;4964868;28;114365;-82
2024/02/11 05:30:45;;;;;;;21.45;13.82;;;;;;;13.58;66.72;98603.25;4966145;28;123854;-83
2024/02/11 05:33:18;;;;;;;21.98;12.98;;;;;;;13.58;66.94;98608.56;4953435;28;124167;-82
2024/02/11 05:35:48;;;;;;;22.33;13.55;;;;;;;13.58;66.84;98603.25;4970037;28;113063;-82
2024/02/11 05:38:19;;;;;;;20.60;13.32;;;;;;;13.58;67.18;98611.22;4970201;28;112213;-83
2024/02/11 05:40:50;;;;;;;22.15;13.00;;;;;;;13.59;67.09;98610.25;4963736;28;124228;-83
2024/02/11 05:43:21;;;;;;;18.60;12.85;;;;;;;13.61;67.20;98613.63;4963682;28;123861;-83
2024/02/11 05:45:49;;;;;;;19.90;12.55;;;;;;;13.62;67.08;98610.81;4962082;28;113509;-82
2024/02/11 05:48:17;;;;;;;17.20;11.63;;;;;;;13.64;67.02;98623.97;4965755;28;113012;-83
2024/02/11 05:50:48;;;;;;;17.77;12.10;;;;;;;13.65;67.24;98625.66;4972264;28;124305;-83
2024/02/11 05:53:16;;;;;;;17.70;11.65;;;;;;;13.66;67.08;98626.50;4971671;28;123593;-82
2024/02/11 05:55:44;;;;;;;13.60;9.57;;;;;;;13.66;67.09;98632.66;4948544;28;113220;-83
2024/02/11 05:58:11;;;;;;;12.38;8.27;;;;;;;13.65;66.90;98630.97;4967482;28;113789;-82
2024/02/11 06:00:42;;;;;;;7.68;5.75;;;;;;;13.63;66.91;98644.41;4970352;28;123010;-82
2024/02/11 06:03:10;;;;;;;7.47;4.72;;;;;;;13.59;66.86;98639.53;4959219;28;122627;-82
2024/02/11 06:05:40;;;;;;;7.85;4.68;;;;;;;13.53;66.88;98653.41;4960041;28;113494;-82
2024/02/11 06:08:09;;;;;;;7.32;4.93;;;;;;;13.47;66.77;98659.25;5015242;28;115000;-82
2024/02/11 06:10:39;;;;;;;8.27;5.70;;;;;;;13.42;66.84;98662.34;4993731;28;124256;-81
2024/02/11 06:13:10;;;;;;;10.93;6.63;;;;;;;13.34;66.63;98665.72;4996529;28;124326;-81
2024/02/11 06:15:40;;;;;;;9.70;6.68;;;;;;;13.27;66.75;98672.53;4987963;28;114348;-81
2024/02/11 06:18:10;;;;;;;13.48;7.30;;;;;;;13.23;66.88;98676.47;5005580;28;114780;-81
2024/02/11 06:20:41;;;;;;;14.45;8.73;;;;;;;13.19;66.62;98683.03;4987839;28;126435;-81
2024/02/11 06:23:08;;;;;;;15.70;10.52;;;;;;;13.13;66.71;98683.56;4994929;28;123119;-81
2024/02/11 06:25:36;;;;;;;16.67;10.73;;;;;;;13.09;66.77;98692.81;4993796;28;117339;-82
2024/02/11 06:28:04;;;;;;;16.25;11.20;;;;;;;13.02;66.63;98698.69;4994018;28;113703;-82
2024/02/11 06:30:31;;;;;;;19.98;12.27;;;;;;;12.95;66.70;98697.56;4987773;28;124898;-82
2024/02/11 06:32:59;;;;;;;22.30;14.18;;;;;;;12.89;66.57;98708.72;4969260;28;123138;-82
2024/02/11 06:35:27;;;;;;;22.10;14.40;;;;;;;12.82;66.30;98718.22;4966384;28;114536;-82
2024/02/11 06:37:55;;;;;;;26.40;15.00;;;;;;;12.76;66.54;98718.78;4963493;28;114555;-82
2024/02/11 06:40:25;;;;;;;22.85;15.23;;;;;;;12.71;66.46;98728.94;4952736;28;126239;-82
2024/02/11 06:42:54;;;;;;;24.55;15.57;;;;;;;12.64;66.34;98737.47;4953452;28;123288;-82
2024/02/11 06:45:22;;;;;;;24.85;14.25;;;;;;;12.58;66.24;98743.31;4965081;28;114282;-82
2024/02/11 06:47:51;;;;;;;25.75;14.85;;;;;;;12.51;66.43;98747.47;4961136;28;112539;-82
2024/02/11 06:50:19;;;;;;;25.02;14.30;;;;;;;12.44;66.41;98747.16;4968121;28;123389;-82
2024/02/11 06:52:50;;;;;;;21.65;13.65;;;;;;;12.41;66.62;98757.19;4966893;28;124119;-83
2024/02/11 06:55:19;;;;;;;22.02;12.25;;;;;;;12.35;66.13;98757.72;4975555;28;114814;-82
2024/02/11 06:57:47;;;;;;;19.27;11.77;;;;;;;12.31;66.24;98761.63;4973478;28;113887;-82
2024/02/11 07:00:18;;;;;;;21.83;12.20;;;;;;;12.26;66.29;98765.53;4964921;28;124283;-81
2024/02/11 07:03:05;;;;;;;;;;;;;;;;;;;;;
2024/02/11 07:05:41;;;;;;;25.00;10.63;;;;;;;12.22;66.22;98787.13;4982919;28;114925;-82
2024/02/11 07:08:09;;;;;;;18.50;9.75;;;;;;;12.19;66.07;98790.91;4960863;28;115555;-82
2024/02/11 07:10:38;;;;;;;19.15;10.98;;;;;;;12.18;66.08;98799.81;4962351;28;122490;-81
2024/02/11 07:13:05;;;;;;;19.77;10.52;;;;;;;12.15;65.95;98816.00;4960800;28;125097;-82
2024/02/11 07:15:33;;;;;;;19.70;11.35;;;;;;;12.13;66.10;98812.66;4957100;28;114173;-81
2024/02/11 07:18:01;;;;;;;20.02;11.93;;;;;;;12.12;66.08;98826.03;4961036;28;114517;-81
2024/02/11 07:20:28;;;;;;;22.02;12.32;;;;;;;12.09;65.98;98832.44;4959780;28;123468;-81
2024/02/11 07:22:56;;;;;;;19.13;12.07;;;;;;;12.07;66.03;98832.59;4954361;28;124229;-81
2024/02/11 07:25:24;;;;;;;21.45;10.60;;;;;;;12.06;66.13;98843.31;4970992;28;113574;-81
2024/02/11 07:27:52;;;;;;;16.73;9.93;;;;;;;12.04;65.86;98850.56;4964434;28;112861;-81
2024/02/11 07:30:19;;;;;;;17.83;8.60;;;;;;;12.01;65.95;98845.50;4961483;28;124492;-81
2024/02/11 07:32:47;;;;;;;13.55;7.15;;;;;;;11.98;66.04;98851.06;4976508;28;124549;-81
2024/02/11 07:35:15;;;;;;;14.82;7.65;;;;;;;11.98;66.14;98856.34;4962292;28;113230;-81
2024/02/11 07:37:44;;;;;;;12.50;7.40;;;;;;;11.98;66.09;98861.66;4968833;28;113511;-81
2024/02/11 07:40:14;;;;;;;11.65;6.43;;;;;;;11.97;66.04;98860.00;4962206;28;123345;-81
2024/02/11 07:42:42;;;;;;;12.50;6.03;;;;;;;11.95;65.85;98856.63;4965532;28;121610;-81
2024/02/11 07:45:14;;;;;;;12.20;5.70;;;;;;;11.96;66.01;98863.59;4940367;28;114231;-81
2024/02/11 07:47:46;;;;;;;13.30;6.43;;;;;;;11.93;66.10;98863.88;4950117;28;113053;-81
2024/02/11 07:50:14;;;;;;;13.48;5.78;;;;;;;11.93;66.21;98863.88;4948528;28;122954;-80
2024/02/11 07:52:43;;;;;;;11.27;5.20;;;;;;;11.94;66.16;98865.53;4957820;28;121920;-81
2024/02/11 07:55:13;;;;;;;8.02;4.90;;;;;;;11.92;66.11;98872.78;4966947;28;114838;-81
2024/02/11 07:57:41;;;;;;;14.35;5.10;;;;;;;11.94;65.96;98873.50;4973323;28;114804;-82
2024/02/11 08:00:10;;;;;;;14.15;4.88;;;;;;;11.95;65.80;98877.84;4966287;28;122610;-81
2024/02/11 08:02:38;;;;;;;10.73;5.45;;;;;;;11.96;66.17;98874.22;4963530;28;125472;-81
2024/02/11 08:05:06;;;;;;;13.88;5.22;;;;;;;11.96;66.17;98874.22;4965878;28;114403;-81
2024/02/11 08:07:33;;;;;;;12.32;5.10;;;;;;;11.98;66.22;98877.59;4975843;28;112094;-81
2024/02/11 08:10:01;;;;;;;11.68;4.95;;;;;;;11.98;66.40;98889.06;4966092;28;124058;-81
2024/02/11 08:12:28;;;;;;;9.35;4.90;;;;;;;12.00;66.30;98886.28;4962732;28;124054;-81
2024/02/11 08:14:55;;;;;;;13.13;5.25;;;;;;;12.02;66.12;98889.66;4968225;28;114405;-81
2024/02/11 08:17:22;;;;;;;16.08;5.35;;;;;;;12.03;66.06;98896.63;4961088;28;113307;-81
2024/02/11 08:19:50;;;;;;;9.25;4.75;;;;;;;12.06;66.26;98897.22;4958580;28;123054;-81
2024/02/11 08:22:18;;;;;;;13.10;5.28;;;;;;;12.09;66.23;98909.38;4963532;28;122778;-81
2024/02/11 08:24:46;;;;;;;15.35;5.03;;;;;;;12.09;66.05;98912.03;4966898;28;115410;-81
2024/02/11 08:27:13;;;;;;;12.77;4.88;;;;;;;12.09;66.16;98906.72;4969417;28;113711;-81
2024/02/11 08:29:46;;;;;;;12.65;5.22;;;;;;;12.09;66.13;98920.00;4960494;28;124161;-81
2024/02/11 08:32:13;;;;;;;14.55;5.70;;;;;;;12.10;66.19;98919.03;4954469;28;123395;-81
2024/02/11 08:34:40;;;;;;;13.82;5.72;;;;;;;12.10;66.21;98921.69;4973026;28;114642;-81
2024/02/11 08:37:08;;;;;;;15.90;6.20;;;;;;;12.10;66.02;98921.69;4970581;28;115165;-81
2024/02/11 08:39:35;;;;;;;14.23;5.82;;;;;;;12.10;66.11;98924.34;4972023;28;123781;-82
2024/02/11 08:42:05;;;;;;;17.40;5.95;;;;;;;12.11;66.06;98926.03;4970964;28;123536;-82
2024/02/11 08:44:32;;;;;;;21.75;6.43;;;;;;;12.11;66.45;98931.34;4971284;28;116085;-82
2024/02/11 08:46:59;;;;;;;16.70;7.00;;;;;;;12.15;66.38;98931.91;4986786;28;115694;-81
2024/02/11 08:49:28;;;;;;;14.80;6.72;;;;;;;12.16;66.43;98934.44;4971653;28;123951;-82
2024/02/11 08:51:55;;;;;;;17.98;6.65;;;;;;;12.17;66.37;98930.84;4968958;28;124719;-82
2024/02/11 08:54:22;;;;;;;15.88;6.85;;;;;;;12.19;66.37;98918.28;4953474;28;113488;-81
2024/02/11 08:56:50;;;;;;;16.73;6.97;;;;;;;12.20;66.29;98919.13;4962750;28;113048;-81
2024/02/11 08:59:17;;;;;;;17.48;7.10;;;;;;;12.21;66.21;98924.31;4952555;28;123527;-81
2024/02/11 09:01:51;;;;;;;16.98;7.05;;;;;;;12.22;66.27;98926.00;4954969;28;123345;-81
2024/02/11 09:04:21;;;;;;;17.23;7.97;;;;;;;12.24;66.35;98939.13;4951254;28;113775;-81
2024/02/11 09:06:51;;;;;;;17.25;7.20;;;;;;;12.25;66.38;98936.34;4962983;28;114810;-82
2024/02/11 09:09:25;;;;;;;18.35;7.45;;;;;;;12.30;66.50;98940.44;4983555;28;122638;-81
2024/02/11 09:11:55;;;;;;;20.60;7.45;;;;;;;12.32;66.43;98939.34;4967022;28;123775;-82
2024/02/11 09:14:29;;;;;;;17.63;7.85;;;;;;;12.35;66.30;98940.91;4981978;28;113214;-82
2024/02/11 09:16:57;;;;;;;16.95;7.32;;;;;;;12.39;66.49;98945.81;4963758;28;113821;-81
2024/02/11 09:19:25;;;;;;;20.63;8.70;;;;;;;12.42;66.54;98947.38;4953891;28;124711;-82
2024/02/11 09:21:54;;;;;;;22.13;8.65;;;;;;;12.46;66.43;98956.78;4959412;28;123554;-81
2024/02/11 09:24:22;;;;;;;17.15;9.32;;;;;;;12.50;66.54;98958.19;4969163;28;115610;-82
2024/02/11 09:26:53;;;;;;;19.85;9.18;;;;;;;12.53;66.34;98957.13;4970213;28;114340;-82
2024/02/11 09:29:23;;;;;;;21.20;8.80;;;;;;;12.56;66.37;98963.00;4965424;28;124984;-81
2024/02/11 09:31:50;;;;;;;24.15;8.93;;;;;;;12.56;66.38;98963.00;4970507;28;123905;-82
2024/02/11 09:34:18;;;;;;;19.38;8.65;;;;;;;12.58;65.80;98960.22;4955771;28;115467;-81
2024/02/11 09:36:45;;;;;;;19.67;8.40;;;;;;;12.57;66.16;98954.06;4957379;28;114381;-81
2024/02/11 09:39:13;;;;;;;24.20;8.82;;;;;;;12.58;66.00;98963.72;4952926;28;98838;-81
2024/02/11 09:41:41;;;;;;;22.75;9.63;;;;;;;12.58;65.88;98961.06;4954986;28;123424;-82
2024/02/11 09:44:10;;;;;;;17.85;8.60;;;;;;;12.58;66.18;98970.84;4982424;28;113782;-82
2024/02/11 09:46:40;;;;;;;20.95;9.60;;;;;;;12.60;66.03;98980.38;4955558;28;113877;-81
2024/02/11 09:49:13;;;;;;;18.58;8.48;;;;;;;12.60;66.17;98985.69;4968051;28;124267;-82
2024/02/11 09:51:41;;;;;;;23.90;9.43;;;;;;;12.61;66.20;98982.03;4954906;28;123704;-81
2024/02/11 09:54:09;;;;;;;23.27;9.95;;;;;;;12.62;66.24;98981.09;4953738;28;115795;-82
2024/02/11 09:56:36;;;;;;;18.27;9.25;;;;;;;12.64;66.10;98981.81;4966629;28;114042;-81
2024/02/11 09:59:04;;;;;;;18.95;8.77;;;;;;;12.68;66.21;98981.53;4970844;28;123537;-81
2024/02/11 10:01:33;;;;;;;19.80;9.60;;;;;;;12.70;65.87;98984.91;4953880;28;125004;-81
2024/02/11 10:04:04;;;;;;;19.83;9.38;;;;;;;12.68;66.06;98986.84;4963665;28;115407;-82
2024/02/11 10:06:37;;;;;;;25.13;9.55;;;;;;;12.69;66.04;98983.22;4960910;28;112465;-82
2024/02/11 10:09:05;;;;;;;21.55;9.77;;;;;;;12.72;66.09;98988.28;4953178;28;124404;-81
2024/02/11 10:11:33;;;;;;;16.83;9.57;;;;;;;12.74;66.00;98996.97;4961856;28;124160;-82
2024/02/11 10:14:00;;;;;;;24.75;9.73;;;;;;;12.75;66.07;99003.94;4966874;28;115844;-81
2024/02/11 10:16:34;;;;;;;19.13;8.82;;;;;;;12.78;66.11;99003.72;4962152;28;114503;-81
2024/02/11 10:19:04;;;;;;;21.77;9.35;;;;;;;12.81;66.01;99006.94;4946991;28;122814;-81
2024/02/11 10:21:32;;;;;;;22.77;9.20;;;;;;;12.82;65.90;99013.09;4986978;28;121925;-81
2024/02/11 10:24:00;;;;;;;23.02;9.35;;;;;;;12.84;65.89;99024.44;4958567;28;115406;-81
2024/02/11 10:26:28;;;;;;;18.73;8.27;;;;;;;12.85;65.62;99020.81;4952414;28;114015;-81
2024/02/11 10:28:58;;;;;;;22.63;8.70;;;;;;;12.87;65.82;99021.53;4954308;28;124604;-82
2024/02/11 10:31:28;;;;;;;18.63;7.97;;;;;;;12.87;65.77;99018.88;4981718;28;122121;-82
2024/02/11 10:33:57;;;;;;;21.02;7.93;;;;;;;12.87;65.72;99016.22;4953171;28;113520;-82
2024/02/11 10:36:26;;;;;;;21.90;8.35;;;;;;;12.91;65.68;99030.94;4983940;28;113664;-82
2024/02/11 10:38:54;;;;;;;21.63;8.38;;;;;;;12.94;65.79;99025.38;4961506;28;124232;-82
2024/02/11 10:41:26;;;;;;;19.73;7.85;;;;;;;12.97;65.89;99030.41;4953565;28;122026;-81
2024/02/11 10:43:54;;;;;;;20.02;8.55;;;;;;;13.03;66.10;99029.91;4969496;28;114379;-82
2024/02/11 10:46:22;;;;;;;25.67;8.63;;;;;;;13.08;65.90;99036.66;4968388;28;113722;-82
2024/02/11 10:48:50;;;;;;;20.25;8.10;;;;;;;13.11;65.58;99036.38;4967196;28;125215;-82
2024/02/11 10:51:27;;;;;;;23.80;7.90;;;;;;;13.13;65.71;99039.72;4966785;28;125930;-82
2024/02/11 10:54:02;;;;;;;21.95;8.02;;;;;;;13.13;65.49;99037.06;4954617;28;113967;-82
2024/02/11 10:56:33;;;;;;;19.90;8.18;;;;;;;13.16;65.62;99050.13;4954747;28;113692;-81
2024/02/11 10:59:20;;;;;;;18.80;7.93;;;;;;;13.17;65.62;99033.22;4963733;28;122779;-82
2024/02/11 11:01:49;;;;;;;20.25;7.47;;;;;;;13.19;65.75;99033.91;4965519;28;123873;-81
2024/02/11 11:04:21;;;;;;;19.73;7.60;;;;;;;13.21;65.71;99031.97;4963608;28;115215;-82
2024/02/11 11:06:51;;;;;;;15.63;7.47;;;;;;;13.21;65.54;99047.91;4967282;28;112435;-82
2024/02/11 11:09:21;;;;;;;24.60;7.88;;;;;;;13.21;65.56;99043.44;4948275;28;122894;-82
2024/02/11 11:11:49;;;;;;;17.02;7.53;;;;;;;13.25;65.46;99041.38;4960326;28;123426;-82
2024/02/11 11:14:17;;;;;;;17.35;7.53;;;;;;;13.25;65.43;99039.53;4950272;28;114791;-81
2024/02/11 11:16:46;;;;;;;14.88;7.13;;;;;;;13.28;65.41;99032.28;4951852;28;112994;-82
2024/02/11 11:19:14;;;;;;;19.10;7.55;;;;;;;13.31;65.16;99038.19;4969878;28;124214;-81
2024/02/11 11:21:54;;;;;;;20.73;6.88;;;;;;;13.32;65.29;99034.59;4966505;28;123982;-82